sensor_id;sensor_type;location;lat;lon;timestamp;P1;durP1;ratioP1;P2;durP2;ratioP2
28245;SDS011;15510;52.512;13.300;2023-03-01T00:01:01;23.80;;;13.13;;
28245;SDS011;15510;52.512;13.300;2023-03-01T00:03:27;20.50;;;12.67;;
28245;SDS011;15510;52.512;13.300;2023-03-01T00:05:53;20.60;;;13.70;;
28245;SDS011;15510;52.512;13.300;2023-03-01T00:08:19;20.50;;;13.90;;
28245;SDS011;15510;52.512;13.300;2023-03-01T00:10:45;25.70;;;13.47;;
28245;SDS011;15510;52.512;13.300;2023-03-01T00:13:10;21.93;;;13.90;;
28245;SDS011;15510;52.512;13.300;2023-03-01T00:15:39;24.33;;;13.20;;
28245;SDS011;15510;52.512;13.300;2023-03-01T00:18:06;23.33;;;13.37;;
28245;SDS011;15510;52.512;13.300;2023-03-01T00:20:33;25.30;;;13.77;;
28245;SDS011;15510;52.512;13.300;2023-03-01T00:22:59;26.13;;;13.60;;
28245;SDS011;15510;52.512;13.300;2023-03-01T00:25:25;22.47;;;13.40;;
28245;SDS011;15510;52.512;13.300;2023-03-01T00:27:50;21.43;;;12.87;;
28245;SDS011;15510;52.512;13.300;2023-03-01T00:30:16;25.30;;;13.43;;
28245;SDS011;15510;52.512;13.300;2023-03-01T00:32:42;26.47;;;14.47;;
28245;SDS011;15510;52.512;13.300;2023-03-01T00:35:08;23.40;;;13.13;;
28245;SDS011;15510;52.512;13.300;2023-03-01T00:37:33;22.70;;;13.30;;
28245;SDS011;15510;52.512;13.300;2023-03-01T00:40:00;25.70;;;12.97;;
28245;SDS011;15510;52.512;13.300;2023-03-01T00:42:26;26.40;;;14.03;;
28245;SDS011;15510;52.512;13.300;2023-03-01T00:44:51;25.90;;;13.53;;
28245;SDS011;15510;52.512;13.300;2023-03-01T00:47:17;24.67;;;13.70;;
28245;SDS011;15510;52.512;13.300;2023-03-01T00:49:43;21.50;;;13.67;;
28245;SDS011;15510;52.512;13.300;2023-03-01T00:52:08;22.87;;;13.40;;
28245;SDS011;15510;52.512;13.300;2023-03-01T00:54:34;21.83;;;13.47;;
28245;SDS011;15510;52.512;13.300;2023-03-01T00:57:00;24.90;;;13.60;;
28245;SDS011;15510;52.512;13.300;2023-03-01T00:59:25;25.20;;;12.70;;
28245;SDS011;15510;52.512;13.300;2023-03-01T01:01:51;27.60;;;14.57;;
28245;SDS011;15510;52.512;13.300;2023-03-01T01:04:17;21.97;;;12.97;;
28245;SDS011;15510;52.512;13.300;2023-03-01T01:06:43;23.43;;;12.70;;
28245;SDS011;15510;52.512;13.300;2023-03-01T01:09:11;20.93;;;13.00;;
28245;SDS011;15510;52.512;13.300;2023-03-01T01:11:51;23.97;;;13.70;;
28245;SDS011;15510;52.512;13.300;2023-03-01T01:14:17;23.60;;;13.47;;
28245;SDS011;15510;52.512;13.300;2023-03-01T01:16:43;23.93;;;12.93;;
28245;SDS011;15510;52.512;13.300;2023-03-01T01:19:10;21.80;;;12.33;;
28245;SDS011;15510;52.512;13.300;2023-03-01T01:21:37;20.47;;;11.33;;
28245;SDS011;15510;52.512;13.300;2023-03-01T01:24:03;17.20;;;11.70;;
28245;SDS011;15510;52.512;13.300;2023-03-01T01:26:32;25.93;;;12.40;;
28245;SDS011;15510;52.512;13.300;2023-03-01T01:28:59;22.27;;;12.67;;
28245;SDS011;15510;52.512;13.300;2023-03-01T01:31:28;23.97;;;12.33;;
28245;SDS011;15510;52.512;13.300;2023-03-01T01:33:55;25.33;;;12.83;;
28245;SDS011;15510;52.512;13.300;2023-03-01T01:36:22;19.53;;;12.27;;
28245;SDS011;15510;52.512;13.300;2023-03-01T01:38:48;21.77;;;12.47;;
28245;SDS011;15510;52.512;13.300;2023-03-01T01:41:15;20.27;;;13.13;;
28245;SDS011;15510;52.512;13.300;2023-03-01T01:43:42;22.57;;;12.70;;
28245;SDS011;15510;52.512;13.300;2023-03-01T01:48:53;20.37;;;12.03;;
28245;SDS011;15510;52.512;13.300;2023-03-01T01:51:40;22.60;;;12.50;;
28245;SDS011;15510;52.512;13.300;2023-03-01T01:54:10;23.53;;;12.73;;
28245;SDS011;15510;52.512;13.300;2023-03-01T01:56:42;19.00;;;12.47;;
28245;SDS011;15510;52.512;13.300;2023-03-01T01:59:12;24.53;;;12.87;;
28245;SDS011;15510;52.512;13.300;2023-03-01T02:01:39;19.27;;;12.07;;
28245;SDS011;15510;52.512;13.300;2023-03-01T02:04:05;22.63;;;12.37;;
28245;SDS011;15510;52.512;13.300;2023-03-01T02:06:41;19.60;;;12.97;;
28245;SDS011;15510;52.512;13.300;2023-03-01T02:09:13;20.57;;;12.97;;
28245;SDS011;15510;52.512;13.300;2023-03-01T02:11:40;21.53;;;11.93;;
28245;SDS011;15510;52.512;13.300;2023-03-01T02:14:07;20.53;;;12.27;;
28245;SDS011;15510;52.512;13.300;2023-03-01T02:16:33;22.17;;;12.43;;
28245;SDS011;15510;52.512;13.300;2023-03-01T02:18:59;20.20;;;12.40;;
28245;SDS011;15510;52.512;13.300;2023-03-01T02:21:37;19.23;;;12.23;;
28245;SDS011;15510;52.512;13.300;2023-03-01T02:24:26;20.50;;;12.87;;
28245;SDS011;15510;52.512;13.300;2023-03-01T02:26:54;21.77;;;12.97;;
28245;SDS011;15510;52.512;13.300;2023-03-01T02:29:22;19.30;;;12.40;;
28245;SDS011;15510;52.512;13.300;2023-03-01T02:31:48;21.13;;;12.60;;
28245;SDS011;15510;52.512;13.300;2023-03-01T02:34:20;20.10;;;12.97;;
28245;SDS011;15510;52.512;13.300;2023-03-01T02:39:32;21.37;;;11.53;;
28245;SDS011;15510;52.512;13.300;2023-03-01T02:42:08;20.47;;;12.30;;
28245;SDS011;15510;52.512;13.300;2023-03-01T02:44:37;18.70;;;11.70;;
28245;SDS011;15510;52.512;13.300;2023-03-01T02:47:03;19.07;;;11.77;;
28245;SDS011;15510;52.512;13.300;2023-03-01T02:49:32;19.53;;;12.37;;
28245;SDS011;15510;52.512;13.300;2023-03-01T02:57:20;20.47;;;11.30;;
28245;SDS011;15510;52.512;13.300;2023-03-01T02:59:48;19.20;;;12.23;;
28245;SDS011;15510;52.512;13.300;2023-03-01T03:02:20;22.60;;;13.23;;
28245;SDS011;15510;52.512;13.300;2023-03-01T03:05:23;18.23;;;11.53;;
28245;SDS011;15510;52.512;13.300;2023-03-01T03:07:54;19.67;;;12.00;;
28245;SDS011;15510;52.512;13.300;2023-03-01T03:10:22;20.07;;;12.77;;
28245;SDS011;15510;52.512;13.300;2023-03-01T03:12:50;20.60;;;12.60;;
28245;SDS011;15510;52.512;13.300;2023-03-01T03:15:17;19.67;;;13.43;;
28245;SDS011;15510;52.512;13.300;2023-03-01T03:17:45;22.40;;;13.60;;
28245;SDS011;15510;52.512;13.300;2023-03-01T03:20:12;21.83;;;12.90;;
28245;SDS011;15510;52.512;13.300;2023-03-01T03:22:44;23.93;;;13.00;;
28245;SDS011;15510;52.512;13.300;2023-03-01T03:25:15;21.83;;;12.17;;
28245;SDS011;15510;52.512;13.300;2023-03-01T03:27:42;18.33;;;11.83;;
28245;SDS011;15510;52.512;13.300;2023-03-01T03:30:10;19.03;;;12.47;;
28245;SDS011;15510;52.512;13.300;2023-03-01T03:32:42;19.10;;;11.90;;
28245;SDS011;15510;52.512;13.300;2023-03-01T03:35:18;19.37;;;12.50;;
28245;SDS011;15510;52.512;13.300;2023-03-01T03:37:49;22.47;;;12.90;;
28245;SDS011;15510;52.512;13.300;2023-03-01T03:40:29;19.13;;;12.67;;
28245;SDS011;15510;52.512;13.300;2023-03-01T03:42:56;19.63;;;12.53;;
28245;SDS011;15510;52.512;13.300;2023-03-01T03:45:22;21.50;;;12.30;;
28245;SDS011;15510;52.512;13.300;2023-03-01T03:47:48;21.10;;;12.23;;
28245;SDS011;15510;52.512;13.300;2023-03-01T03:50:14;21.47;;;12.10;;
28245;SDS011;15510;52.512;13.300;2023-03-01T03:52:41;19.27;;;11.90;;
28245;SDS011;15510;52.512;13.300;2023-03-01T03:55:08;21.70;;;12.60;;
28245;SDS011;15510;52.512;13.300;2023-03-01T03:57:39;19.87;;;12.23;;
28245;SDS011;15510;52.512;13.300;2023-03-01T04:00:07;20.50;;;12.57;;
28245;SDS011;15510;52.512;13.300;2023-03-01T04:02:41;23.67;;;12.83;;
28245;SDS011;15510;52.512;13.300;2023-03-01T04:05:08;20.90;;;13.00;;
28245;SDS011;15510;52.512;13.300;2023-03-01T04:07:35;21.87;;;12.67;;
28245;SDS011;15510;52.512;13.300;2023-03-01T04:10:02;19.90;;;12.20;;
28245;SDS011;15510;52.512;13.300;2023-03-01T04:12:29;24.30;;;12.53;;
28245;SDS011;15510;52.512;13.300;2023-03-01T04:14:55;19.90;;;13.27;;
28245;SDS011;15510;52.512;13.300;2023-03-01T04:17:20;21.60;;;12.90;;
28245;SDS011;15510;52.512;13.300;2023-03-01T04:19:46;21.57;;;12.23;;
28245;SDS011;15510;52.512;13.300;2023-03-01T04:22:14;21.17;;;11.83;;
28245;SDS011;15510;52.512;13.300;2023-03-01T04:24:46;23.17;;;12.93;;
28245;SDS011;15510;52.512;13.300;2023-03-01T04:27:12;22.33;;;12.63;;
28245;SDS011;15510;52.512;13.300;2023-03-01T04:29:37;19.93;;;12.23;;
28245;SDS011;15510;52.512;13.300;2023-03-01T04:32:03;20.07;;;12.57;;
28245;SDS011;15510;52.512;13.300;2023-03-01T04:34:29;22.30;;;12.50;;
28245;SDS011;15510;52.512;13.300;2023-03-01T04:36:55;22.43;;;12.47;;
28245;SDS011;15510;52.512;13.300;2023-03-01T04:39:21;17.53;;;11.97;;
28245;SDS011;15510;52.512;13.300;2023-03-01T04:41:47;19.90;;;12.43;;
28245;SDS011;15510;52.512;13.300;2023-03-01T04:46:48;20.37;;;12.53;;
28245;SDS011;15510;52.512;13.300;2023-03-01T04:49:15;19.77;;;12.27;;
28245;SDS011;15510;52.512;13.300;2023-03-01T04:51:41;16.77;;;12.50;;
28245;SDS011;15510;52.512;13.300;2023-03-01T04:54:06;20.83;;;11.87;;
28245;SDS011;15510;52.512;13.300;2023-03-01T04:56:34;17.43;;;11.50;;
28245;SDS011;15510;52.512;13.300;2023-03-01T04:58:59;19.50;;;11.60;;
28245;SDS011;15510;52.512;13.300;2023-03-01T05:01:25;16.93;;;11.40;;
28245;SDS011;15510;52.512;13.300;2023-03-01T05:03:51;20.27;;;12.73;;
28245;SDS011;15510;52.512;13.300;2023-03-01T05:06:17;21.83;;;11.77;;
28245;SDS011;15510;52.512;13.300;2023-03-01T05:08:44;20.60;;;12.07;;
28245;SDS011;15510;52.512;13.300;2023-03-01T05:11:10;18.87;;;11.60;;
28245;SDS011;15510;52.512;13.300;2023-03-01T05:13:37;16.73;;;11.60;;
28245;SDS011;15510;52.512;13.300;2023-03-01T05:16:04;18.00;;;11.00;;
28245;SDS011;15510;52.512;13.300;2023-03-01T05:18:32;19.87;;;11.73;;
28245;SDS011;15510;52.512;13.300;2023-03-01T05:21:08;20.60;;;11.60;;
28245;SDS011;15510;52.512;13.300;2023-03-01T05:23:37;18.63;;;12.00;;
28245;SDS011;15510;52.512;13.300;2023-03-01T05:26:04;18.50;;;11.70;;
28245;SDS011;15510;52.512;13.300;2023-03-01T05:28:31;20.77;;;12.07;;
28245;SDS011;15510;52.512;13.300;2023-03-01T05:30:57;18.80;;;12.87;;
28245;SDS011;15510;52.512;13.300;2023-03-01T05:33:23;18.47;;;12.33;;
28245;SDS011;15510;52.512;13.300;2023-03-01T05:35:50;21.87;;;12.13;;
28245;SDS011;15510;52.512;13.300;2023-03-01T05:38:17;20.07;;;12.77;;
28245;SDS011;15510;52.512;13.300;2023-03-01T05:40:43;23.93;;;12.70;;
28245;SDS011;15510;52.512;13.300;2023-03-01T05:43:11;22.23;;;12.87;;
28245;SDS011;15510;52.512;13.300;2023-03-01T05:45:37;19.33;;;12.87;;
28245;SDS011;15510;52.512;13.300;2023-03-01T05:48:04;23.60;;;13.60;;
28245;SDS011;15510;52.512;13.300;2023-03-01T05:50:34;18.10;;;12.43;;
28245;SDS011;15510;52.512;13.300;2023-03-01T05:53:06;20.97;;;13.00;;
28245;SDS011;15510;52.512;13.300;2023-03-01T05:55:40;20.27;;;12.50;;
28245;SDS011;15510;52.512;13.300;2023-03-01T05:58:09;26.90;;;14.13;;
28245;SDS011;15510;52.512;13.300;2023-03-01T06:00:37;22.93;;;12.93;;
28245;SDS011;15510;52.512;13.300;2023-03-01T06:03:02;19.77;;;12.57;;
28245;SDS011;15510;52.512;13.300;2023-03-01T06:05:28;23.43;;;13.07;;
28245;SDS011;15510;52.512;13.300;2023-03-01T06:07:54;22.20;;;13.30;;
28245;SDS011;15510;52.512;13.300;2023-03-01T06:10:23;18.57;;;12.50;;
28245;SDS011;15510;52.512;13.300;2023-03-01T06:12:49;21.60;;;12.27;;
28245;SDS011;15510;52.512;13.300;2023-03-01T06:15:15;20.87;;;12.97;;
28245;SDS011;15510;52.512;13.300;2023-03-01T06:17:42;24.40;;;13.07;;
28245;SDS011;15510;52.512;13.300;2023-03-01T06:20:13;19.67;;;12.60;;
28245;SDS011;15510;52.512;13.300;2023-03-01T06:22:47;25.50;;;13.07;;
28245;SDS011;15510;52.512;13.300;2023-03-01T06:25:15;20.67;;;12.70;;
28245;SDS011;15510;52.512;13.300;2023-03-01T06:27:44;24.30;;;13.10;;
28245;SDS011;15510;52.512;13.300;2023-03-01T06:30:11;20.00;;;12.93;;
28245;SDS011;15510;52.512;13.300;2023-03-01T06:32:39;21.03;;;13.23;;
28245;SDS011;15510;52.512;13.300;2023-03-01T06:35:12;20.10;;;12.30;;
28245;SDS011;15510;52.512;13.300;2023-03-01T06:37:39;20.60;;;13.77;;
28245;SDS011;15510;52.512;13.300;2023-03-01T06:40:06;21.00;;;12.80;;
28245;SDS011;15510;52.512;13.300;2023-03-01T06:42:36;26.27;;;12.37;;
28245;SDS011;15510;52.512;13.300;2023-03-01T06:45:03;21.23;;;13.03;;
28245;SDS011;15510;52.512;13.300;2023-03-01T06:47:31;21.93;;;13.63;;
28245;SDS011;15510;52.512;13.300;2023-03-01T06:49:58;19.43;;;13.23;;
28245;SDS011;15510;52.512;13.300;2023-03-01T06:52:24;22.60;;;13.23;;
28245;SDS011;15510;52.512;13.300;2023-03-01T06:54:50;22.60;;;12.83;;
28245;SDS011;15510;52.512;13.300;2023-03-01T06:57:16;25.63;;;14.10;;
28245;SDS011;15510;52.512;13.300;2023-03-01T06:59:42;29.13;;;13.17;;
28245;SDS011;15510;52.512;13.300;2023-03-01T07:02:09;20.70;;;13.50;;
28245;SDS011;15510;52.512;13.300;2023-03-01T07:04:36;19.50;;;13.07;;
28245;SDS011;15510;52.512;13.300;2023-03-01T07:07:02;23.80;;;14.83;;
28245;SDS011;15510;52.512;13.300;2023-03-01T07:09:28;23.20;;;14.50;;
28245;SDS011;15510;52.512;13.300;2023-03-01T07:11:54;20.73;;;13.50;;
28245;SDS011;15510;52.512;13.300;2023-03-01T07:14:22;21.37;;;13.30;;
28245;SDS011;15510;52.512;13.300;2023-03-01T07:16:50;23.33;;;13.23;;
28245;SDS011;15510;52.512;13.300;2023-03-01T07:19:17;21.90;;;13.77;;
28245;SDS011;15510;52.512;13.300;2023-03-01T07:21:42;17.97;;;12.57;;
28245;SDS011;15510;52.512;13.300;2023-03-01T07:24:08;20.00;;;13.50;;
28245;SDS011;15510;52.512;13.300;2023-03-01T07:26:34;21.20;;;13.23;;
28245;SDS011;15510;52.512;13.300;2023-03-01T07:29:01;18.10;;;12.50;;
28245;SDS011;15510;52.512;13.300;2023-03-01T07:31:28;24.90;;;12.17;;
28245;SDS011;15510;52.512;13.300;2023-03-01T07:33:54;19.40;;;12.53;;
28245;SDS011;15510;52.512;13.300;2023-03-01T07:36:20;18.67;;;12.37;;
28245;SDS011;15510;52.512;13.300;2023-03-01T07:38:45;22.80;;;12.90;;
28245;SDS011;15510;52.512;13.300;2023-03-01T07:41:11;22.13;;;12.70;;
28245;SDS011;15510;52.512;13.300;2023-03-01T07:43:37;18.40;;;11.70;;
28245;SDS011;15510;52.512;13.300;2023-03-01T07:46:03;19.00;;;12.73;;
28245;SDS011;15510;52.512;13.300;2023-03-01T07:48:30;18.60;;;11.73;;
28245;SDS011;15510;52.512;13.300;2023-03-01T07:51:00;19.20;;;11.50;;
28245;SDS011;15510;52.512;13.300;2023-03-01T07:53:27;15.73;;;10.30;;
28245;SDS011;15510;52.512;13.300;2023-03-01T07:56:04;19.80;;;11.00;;
28245;SDS011;15510;52.512;13.300;2023-03-01T07:58:34;16.23;;;10.93;;
28245;SDS011;15510;52.512;13.300;2023-03-01T08:01:04;16.83;;;11.23;;
28245;SDS011;15510;52.512;13.300;2023-03-01T08:03:32;25.77;;;11.27;;
28245;SDS011;15510;52.512;13.300;2023-03-01T08:06:01;15.70;;;9.83;;
28245;SDS011;15510;52.512;13.300;2023-03-01T08:08:29;14.37;;;9.93;;
28245;SDS011;15510;52.512;13.300;2023-03-01T08:10:59;18.53;;;10.00;;
28245;SDS011;15510;52.512;13.300;2023-03-01T08:13:26;15.10;;;8.77;;
28245;SDS011;15510;52.512;13.300;2023-03-01T08:16:03;12.60;;;8.10;;
28245;SDS011;15510;52.512;13.300;2023-03-01T08:18:31;13.30;;;8.10;;
28245;SDS011;15510;52.512;13.300;2023-03-01T08:21:04;15.53;;;7.57;;
28245;SDS011;15510;52.512;13.300;2023-03-01T08:23:30;11.25;;;8.10;;
28245;SDS011;15510;52.512;13.300;2023-03-01T08:26:06;14.13;;;7.80;;
28245;SDS011;15510;52.512;13.300;2023-03-01T08:28:33;12.13;;;7.83;;
28245;SDS011;15510;52.512;13.300;2023-03-01T08:30:59;12.37;;;7.70;;
28245;SDS011;15510;52.512;13.300;2023-03-01T08:33:25;10.47;;;7.57;;
28245;SDS011;15510;52.512;13.300;2023-03-01T08:35:51;13.90;;;7.00;;
28245;SDS011;15510;52.512;13.300;2023-03-01T08:38:16;13.57;;;7.10;;
28245;SDS011;15510;52.512;13.300;2023-03-01T08:40:42;7.97;;;5.50;;
28245;SDS011;15510;52.512;13.300;2023-03-01T08:43:08;9.03;;;5.93;;
28245;SDS011;15510;52.512;13.300;2023-03-01T08:45:34;7.47;;;4.77;;
28245;SDS011;15510;52.512;13.300;2023-03-01T08:48:00;9.90;;;5.37;;
28245;SDS011;15510;52.512;13.300;2023-03-01T08:50:25;7.60;;;5.50;;
28245;SDS011;15510;52.512;13.300;2023-03-01T08:52:51;12.63;;;6.90;;
28245;SDS011;15510;52.512;13.300;2023-03-01T08:55:17;8.07;;;5.53;;
28245;SDS011;15510;52.512;13.300;2023-03-01T08:57:43;10.77;;;5.70;;
28245;SDS011;15510;52.512;13.300;2023-03-01T09:00:10;9.10;;;6.53;;
28245;SDS011;15510;52.512;13.300;2023-03-01T09:02:36;26.10;;;8.33;;
28245;SDS011;15510;52.512;13.300;2023-03-01T09:05:02;9.73;;;5.70;;
28245;SDS011;15510;52.512;13.300;2023-03-01T09:07:28;11.00;;;5.60;;
28245;SDS011;15510;52.512;13.300;2023-03-01T09:09:54;11.43;;;5.97;;
28245;SDS011;15510;52.512;13.300;2023-03-01T09:12:20;12.77;;;6.83;;
28245;SDS011;15510;52.512;13.300;2023-03-01T09:14:46;8.93;;;5.20;;
28245;SDS011;15510;52.512;13.300;2023-03-01T09:17:12;10.03;;;5.90;;
28245;SDS011;15510;52.512;13.300;2023-03-01T09:19:37;8.50;;;5.13;;
28245;SDS011;15510;52.512;13.300;2023-03-01T09:22:04;8.60;;;5.20;;
28245;SDS011;15510;52.512;13.300;2023-03-01T09:24:29;6.97;;;5.00;;
28245;SDS011;15510;52.512;13.300;2023-03-01T09:26:55;8.07;;;5.33;;
28245;SDS011;15510;52.512;13.300;2023-03-01T09:29:21;11.67;;;7.30;;
28245;SDS011;15510;52.512;13.300;2023-03-01T09:31:48;11.23;;;5.30;;
28245;SDS011;15510;52.512;13.300;2023-03-01T09:34:14;8.90;;;5.33;;
28245;SDS011;15510;52.512;13.300;2023-03-01T09:36:44;9.00;;;5.70;;
28245;SDS011;15510;52.512;13.300;2023-03-01T09:39:10;11.47;;;6.50;;
28245;SDS011;15510;52.512;13.300;2023-03-01T09:46:56;8.63;;;5.10;;
28245;SDS011;15510;52.512;13.300;2023-03-01T09:49:23;9.87;;;5.17;;
28245;SDS011;15510;52.512;13.300;2023-03-01T09:54:44;8.63;;;4.70;;
28245;SDS011;15510;52.512;13.300;2023-03-01T10:02:48;9.17;;;5.27;;
28245;SDS011;15510;52.512;13.300;2023-03-01T10:07:52;8.57;;;4.43;;
28245;SDS011;15510;52.512;13.300;2023-03-01T10:10:28;6.63;;;4.47;;
28245;SDS011;15510;52.512;13.300;2023-03-01T10:12:58;6.37;;;4.53;;
28245;SDS011;15510;52.512;13.300;2023-03-01T10:15:33;7.23;;;4.33;;
28245;SDS011;15510;52.512;13.300;2023-03-01T10:18:05;8.00;;;4.27;;
28245;SDS011;15510;52.512;13.300;2023-03-01T10:20:45;6.60;;;3.50;;
28245;SDS011;15510;52.512;13.300;2023-03-01T10:23:22;6.60;;;4.33;;
28245;SDS011;15510;52.512;13.300;2023-03-01T10:31:40;4.40;;;3.03;;
28245;SDS011;15510;52.512;13.300;2023-03-01T10:34:10;6.67;;;3.17;;
28245;SDS011;15510;52.512;13.300;2023-03-01T10:36:39;6.23;;;3.47;;
28245;SDS011;15510;52.512;13.300;2023-03-01T10:39:14;6.93;;;3.43;;
28245;SDS011;15510;52.512;13.300;2023-03-01T10:41:51;9.40;;;3.70;;
28245;SDS011;15510;52.512;13.300;2023-03-01T10:44:36;13.63;;;3.83;;
28245;SDS011;15510;52.512;13.300;2023-03-01T10:47:02;8.00;;;3.50;;
28245;SDS011;15510;52.512;13.300;2023-03-01T10:49:29;9.67;;;4.43;;
28245;SDS011;15510;52.512;13.300;2023-03-01T10:51:55;8.90;;;4.43;;
28245;SDS011;15510;52.512;13.300;2023-03-01T10:54:29;5.47;;;4.00;;
28245;SDS011;15510;52.512;13.300;2023-03-01T10:57:03;10.93;;;4.47;;
28245;SDS011;15510;52.512;13.300;2023-03-01T11:02:45;7.90;;;4.43;;
28245;SDS011;15510;52.512;13.300;2023-03-01T11:04:57;9.63;;;4.23;;
28245;SDS011;15510;52.512;13.300;2023-03-01T11:07:27;10.93;;;5.17;;
28245;SDS011;15510;52.512;13.300;2023-03-01T11:09:53;7.60;;;4.50;;
28245;SDS011;15510;52.512;13.300;2023-03-01T11:12:20;8.20;;;4.33;;
28245;SDS011;15510;52.512;13.300;2023-03-01T11:14:50;8.57;;;3.80;;
28245;SDS011;15510;52.512;13.300;2023-03-01T11:22:42;6.17;;;3.60;;
28245;SDS011;15510;52.512;13.300;2023-03-01T11:25:19;8.43;;;4.30;;
28245;SDS011;15510;52.512;13.300;2023-03-01T11:28:06;9.40;;;5.90;;
28245;SDS011;15510;52.512;13.300;2023-03-01T11:33:18;6.80;;;3.70;;
28245;SDS011;15510;52.512;13.300;2023-03-01T11:38:30;7.38;;;3.53;;
28245;SDS011;15510;52.512;13.300;2023-03-01T11:46:28;5.75;;;3.65;;
28245;SDS011;15510;52.512;13.300;2023-03-01T11:56:57;5.03;;;3.00;;
28245;SDS011;15510;52.512;13.300;2023-03-01T12:08:48;4.85;;;3.10;;
28245;SDS011;15510;52.512;13.300;2023-03-01T12:12:00;6.50;;;3.25;;
28245;SDS011;15510;52.512;13.300;2023-03-01T12:20:22;4.60;;;2.90;;
28245;SDS011;15510;52.512;13.300;2023-03-01T12:34:01;4.20;;;3.03;;
28245;SDS011;15510;52.512;13.300;2023-03-01T12:42:57;5.05;;;3.35;;
28245;SDS011;15510;52.512;13.300;2023-03-01T12:45:48;4.20;;;2.70;;
28245;SDS011;15510;52.512;13.300;2023-03-01T12:51:17;4.70;;;2.58;;
28245;SDS011;15510;52.512;13.300;2023-03-01T12:53:48;5.75;;;2.92;;
28245;SDS011;15510;52.512;13.300;2023-03-01T12:56:23;6.13;;;3.10;;
28245;SDS011;15510;52.512;13.300;2023-03-01T12:59:01;8.45;;;2.97;;
28245;SDS011;15510;52.512;13.300;2023-03-01T13:01:45;3.20;;;2.85;;
28245;SDS011;15510;52.512;13.300;2023-03-01T13:06:55;4.78;;;2.63;;
28245;SDS011;15510;52.512;13.300;2023-03-01T13:17:55;4.63;;;3.00;;
28245;SDS011;15510;52.512;13.300;2023-03-01T13:33:50;3.08;;;2.08;;
28245;SDS011;15510;52.512;13.300;2023-03-01T13:41:52;6.20;;;2.93;;
28245;SDS011;15510;52.512;13.300;2023-03-01T13:49:36;4.37;;;2.10;;
28245;SDS011;15510;52.512;13.300;2023-03-01T13:52:58;2.60;;;2.40;;
28245;SDS011;15510;52.512;13.300;2023-03-01T13:57:48;3.37;;;2.30;;
28245;SDS011;15510;52.512;13.300;2023-03-01T14:03:15;3.30;;;1.87;;
28245;SDS011;15510;52.512;13.300;2023-03-01T14:05:44;4.43;;;2.27;;
28245;SDS011;15510;52.512;13.300;2023-03-01T14:08:26;6.00;;;2.63;;
28245;SDS011;15510;52.512;13.300;2023-03-01T14:16:05;5.07;;;2.20;;
28245;SDS011;15510;52.512;13.300;2023-03-01T14:21:31;3.37;;;2.80;;
28245;SDS011;15510;52.512;13.300;2023-03-01T14:23:57;4.70;;;2.50;;
28245;SDS011;15510;52.512;13.300;2023-03-01T14:26:24;4.40;;;3.10;;
28245;SDS011;15510;52.512;13.300;2023-03-01T14:28:49;6.03;;;2.90;;
28245;SDS011;15510;52.512;13.300;2023-03-01T14:33:56;3.27;;;2.07;;
28245;SDS011;15510;52.512;13.300;2023-03-01T14:36:27;4.83;;;2.17;;
28245;SDS011;15510;52.512;13.300;2023-03-01T14:38:55;2.30;;;2.10;;
28245;SDS011;15510;52.512;13.300;2023-03-01T14:41:24;6.57;;;2.40;;
28245;SDS011;15510;52.512;13.300;2023-03-01T14:43:55;5.67;;;3.00;;
28245;SDS011;15510;52.512;13.300;2023-03-01T14:48:58;2.63;;;1.63;;
28245;SDS011;15510;52.512;13.300;2023-03-01T14:51:28;3.20;;;1.80;;
28245;SDS011;15510;52.512;13.300;2023-03-01T14:53:54;3.40;;;2.43;;
28245;SDS011;15510;52.512;13.300;2023-03-01T14:56:20;10.97;;;2.33;;
28245;SDS011;15510;52.512;13.300;2023-03-01T14:58:46;3.27;;;1.87;;
28245;SDS011;15510;52.512;13.300;2023-03-01T15:01:16;3.13;;;2.00;;
28245;SDS011;15510;52.512;13.300;2023-03-01T15:03:44;2.37;;;1.87;;
28245;SDS011;15510;52.512;13.300;2023-03-01T15:06:14;4.83;;;2.10;;
28245;SDS011;15510;52.512;13.300;2023-03-01T15:08:47;5.03;;;2.03;;
28245;SDS011;15510;52.512;13.300;2023-03-01T15:11:29;10.70;;;6.63;;
28245;SDS011;15510;52.512;13.300;2023-03-01T15:13:56;1.67;;;1.30;;
28245;SDS011;15510;52.512;13.300;2023-03-01T15:16:24;33.83;;;23.47;;
28245;SDS011;15510;52.512;13.300;2023-03-01T15:21:30;7.57;;;1.77;;
28245;SDS011;15510;52.512;13.300;2023-03-01T15:24:17;5.63;;;2.03;;
28245;SDS011;15510;52.512;13.300;2023-03-01T15:26:52;6.00;;;1.87;;
28245;SDS011;15510;52.512;13.300;2023-03-01T15:29:26;2.27;;;1.60;;
28245;SDS011;15510;52.512;13.300;2023-03-01T15:32:03;2.87;;;1.67;;
28245;SDS011;15510;52.512;13.300;2023-03-01T15:34:35;3.37;;;1.73;;
28245;SDS011;15510;52.512;13.300;2023-03-01T15:37:03;2.57;;;1.50;;
28245;SDS011;15510;52.512;13.300;2023-03-01T15:39:53;10.10;;;2.17;;
28245;SDS011;15510;52.512;13.300;2023-03-01T15:45:07;2.13;;;1.53;;
28245;SDS011;15510;52.512;13.300;2023-03-01T15:47:47;3.47;;;1.43;;
28245;SDS011;15510;52.512;13.300;2023-03-01T15:50:25;2.23;;;1.63;;
28245;SDS011;15510;52.512;13.300;2023-03-01T15:52:53;3.23;;;1.57;;
28245;SDS011;15510;52.512;13.300;2023-03-01T15:55:21;4.97;;;3.60;;
28245;SDS011;15510;52.512;13.300;2023-03-01T15:57:50;17.83;;;6.37;;
28245;SDS011;15510;52.512;13.300;2023-03-01T16:00:27;13.90;;;9.57;;
28245;SDS011;15510;52.512;13.300;2023-03-01T16:02:53;5.83;;;3.00;;
28245;SDS011;15510;52.512;13.300;2023-03-01T16:05:20;2.93;;;2.00;;
28245;SDS011;15510;52.512;13.300;2023-03-01T16:07:55;6.73;;;1.90;;
28245;SDS011;15510;52.512;13.300;2023-03-01T16:10:21;3.13;;;1.67;;
28245;SDS011;15510;52.512;13.300;2023-03-01T16:12:49;2.27;;;1.77;;
28245;SDS011;15510;52.512;13.300;2023-03-01T16:15:19;4.20;;;2.40;;
28245;SDS011;15510;52.512;13.300;2023-03-01T16:17:45;6.43;;;3.50;;
28245;SDS011;15510;52.512;13.300;2023-03-01T16:20:20;5.53;;;3.00;;
28245;SDS011;15510;52.512;13.300;2023-03-01T16:22:47;3.20;;;2.00;;
28245;SDS011;15510;52.512;13.300;2023-03-01T16:25:14;3.97;;;1.70;;
28245;SDS011;15510;52.512;13.300;2023-03-01T16:27:44;6.57;;;1.97;;
28245;SDS011;15510;52.512;13.300;2023-03-01T16:30:12;6.00;;;1.60;;
28245;SDS011;15510;52.512;13.300;2023-03-01T16:32:39;4.20;;;2.20;;
28245;SDS011;15510;52.512;13.300;2023-03-01T16:35:07;4.47;;;2.07;;
28245;SDS011;15510;52.512;13.300;2023-03-01T16:37:35;6.67;;;2.67;;
28245;SDS011;15510;52.512;13.300;2023-03-01T16:40:02;3.53;;;2.37;;
28245;SDS011;15510;52.512;13.300;2023-03-01T16:42:32;4.43;;;2.77;;
28245;SDS011;15510;52.512;13.300;2023-03-01T16:45:05;4.00;;;2.30;;
28245;SDS011;15510;52.512;13.300;2023-03-01T16:47:32;4.57;;;2.73;;
28245;SDS011;15510;52.512;13.300;2023-03-01T16:49:58;5.23;;;3.20;;
28245;SDS011;15510;52.512;13.300;2023-03-01T16:52:25;12.23;;;4.10;;
28245;SDS011;15510;52.512;13.300;2023-03-01T16:54:51;6.83;;;4.70;;
28245;SDS011;15510;52.512;13.300;2023-03-01T16:57:16;10.17;;;4.97;;
28245;SDS011;15510;52.512;13.300;2023-03-01T16:59:43;10.17;;;4.03;;
28245;SDS011;15510;52.512;13.300;2023-03-01T17:02:10;7.73;;;4.23;;
28245;SDS011;15510;52.512;13.300;2023-03-01T17:04:37;8.47;;;3.50;;
28245;SDS011;15510;52.512;13.300;2023-03-01T17:07:06;5.27;;;2.90;;